createdAt,value
2017-10-01T00:00:48.056Z,8.87
2017-10-01T00:03:16.300Z,8.73
2017-10-01T00:05:43.760Z,8.93
2017-10-01T00:08:11.248Z,8.70
2017-10-01T00:10:38.720Z,7.93
2017-10-01T00:13:06.188Z,7.83
2017-10-01T00:15:34.462Z,9.57
2017-10-01T00:18:03.439Z,7.80
2017-10-01T00:20:31.039Z,8.07
2017-10-01T00:22:58.495Z,6.70
2017-10-01T00:25:26.909Z,6.50
2017-10-01T00:27:54.474Z,6.53
2017-10-01T00:30:21.933Z,5.93
2017-10-01T00:32:49.506Z,8.17
2017-10-01T00:35:17.727Z,6.47
2017-10-01T00:37:45.197Z,6.97
2017-10-01T00:40:13.452Z,6.63
2017-10-01T00:42:40.926Z,7.20
2017-10-01T00:45:08.400Z,5.87
2017-10-01T00:47:35.861Z,6.87
2017-10-01T00:50:03.471Z,7.10
2017-10-01T00:52:31.104Z,6.83
2017-10-01T00:54:59.336Z,7.00
2017-10-01T00:57:26.811Z,6.73
2017-10-01T00:59:54.279Z,6.80
2017-10-01T01:02:22.542Z,6.93
2017-10-01T01:04:50.023Z,7.40
2017-10-01T01:07:17.611Z,6.97
2017-10-01T01:09:45.082Z,6.77
2017-10-01T01:12:12.535Z,7.13
2017-10-01T01:14:40.026Z,7.07
2017-10-01T01:17:07.587Z,7.43
2017-10-01T01:19:35.836Z,6.90
2017-10-01T01:22:03.341Z,7.10
2017-10-01T01:24:30.838Z,6.37
2017-10-01T01:26:59.073Z,6.40
2017-10-01T01:29:26.581Z,6.10
2017-10-01T01:31:54.151Z,6.17
2017-10-01T01:34:21.607Z,6.60
2017-10-01T01:36:49.080Z,6.87
2017-10-01T01:39:16.568Z,6.20
2017-10-01T01:41:44.148Z,5.93
2017-10-01T01:44:12.381Z,6.03
2017-10-01T01:46:39.830Z,6.10
2017-10-01T01:49:07.320Z,5.90
2017-10-01T01:51:34.792Z,5.50
2017-10-01T01:54:03.039Z,4.77
2017-10-01T01:56:30.493Z,6.10
2017-10-01T01:58:58.063Z,5.27
2017-10-01T02:01:26.346Z,6.67
2017-10-01T02:03:54.616Z,5.40
2017-10-01T02:06:22.086Z,5.40
2017-10-01T02:08:50.328Z,6.13
2017-10-01T02:11:18.570Z,5.63
2017-10-01T02:13:46.039Z,5.37
2017-10-01T02:16:13.636Z,5.90
2017-10-01T02:18:41.101Z,6.93
2017-10-01T02:21:08.568Z,6.80
2017-10-01T02:23:36.817Z,6.50
2017-10-01T02:26:04.297Z,6.53
2017-10-01T02:28:31.997Z,6.70
2017-10-01T02:31:00.227Z,5.40
2017-10-01T02:33:28.472Z,7.30
2017-10-01T02:35:55.961Z,7.33
2017-10-01T02:38:24.186Z,6.00
2017-10-01T02:40:51.736Z,6.60
2017-10-01T02:43:19.217Z,5.90
2017-10-01T02:45:46.805Z,5.87
2017-10-01T02:48:14.402Z,5.93
2017-10-01T02:50:41.867Z,5.57
2017-10-01T02:53:09.348Z,5.40
2017-10-01T02:55:37.562Z,5.07
2017-10-01T02:58:05.042Z,4.60
2017-10-01T03:00:32.511Z,5.33
2017-10-01T03:03:00.097Z,5.23
2017-10-01T03:05:28.317Z,5.50
2017-10-01T03:07:55.764Z,5.30
2017-10-01T03:10:24.030Z,4.80
2017-10-01T03:12:51.504Z,4.70
2017-10-01T03:15:19.112Z,4.83
2017-10-01T03:17:46.581Z,4.33
2017-10-01T03:20:14.056Z,4.90
2017-10-01T03:22:41.530Z,6.27
2017-10-01T03:25:09.754Z,5.87
2017-10-01T03:27:37.979Z,4.57
2017-10-01T03:30:06.238Z,5.00
2017-10-01T03:32:33.733Z,4.87
2017-10-01T03:35:01.179Z,4.63
2017-10-01T03:37:28.654Z,4.93
2017-10-01T03:39:56.107Z,4.47
2017-10-01T03:42:23.602Z,4.63
2017-10-01T03:44:51.864Z,5.03
2017-10-01T03:47:19.362Z,5.67
2017-10-01T03:49:47.614Z,4.80
2017-10-01T03:52:15.087Z,4.80
2017-10-01T03:54:43.307Z,5.50
2017-10-01T03:57:11.561Z,5.00
2017-10-01T03:59:39.792Z,4.50
2017-10-01T04:02:07.362Z,5.70
2017-10-01T04:04:34.826Z,5.30
2017-10-01T04:07:03.074Z,5.80
2017-10-01T04:09:30.606Z,5.57
2017-10-01T04:11:58.879Z,5.60
2017-10-01T04:14:26.357Z,5.97
2017-10-01T04:16:53.864Z,5.67
2017-10-01T04:19:21.343Z,6.37
2017-10-01T04:21:48.811Z,5.77
2017-10-01T04:24:16.276Z,6.00
2017-10-01T04:26:43.749Z,5.40
2017-10-01T04:29:11.222Z,6.40
2017-10-01T04:31:38.686Z,6.17
2017-10-01T04:34:06.288Z,6.43
2017-10-01T04:36:33.864Z,7.13
2017-10-01T04:39:01.353Z,6.83
2017-10-01T04:41:28.810Z,5.90
2017-10-01T04:43:57.058Z,7.20
2017-10-01T04:46:24.578Z,7.00
2017-10-01T04:48:52.830Z,6.97
2017-10-01T04:51:20.291Z,7.70
2017-10-01T04:53:47.775Z,8.90
2017-10-01T04:56:15.236Z,8.50
2017-10-01T04:58:42.752Z,8.27
2017-10-01T05:01:10.359Z,8.27
2017-10-01T05:03:37.899Z,7.40
2017-10-01T05:06:05.408Z,7.70
2017-10-01T05:08:33.839Z,8.20
2017-10-01T05:11:02.143Z,7.03
2017-10-01T05:13:29.607Z,6.23
2017-10-01T05:15:57.871Z,5.90
2017-10-01T05:18:25.360Z,6.70
2017-10-01T05:20:52.846Z,6.23
2017-10-01T05:23:20.337Z,6.80
2017-10-01T05:25:47.817Z,5.87
2017-10-01T05:28:15.303Z,6.47
2017-10-01T05:30:42.778Z,6.23
2017-10-01T05:33:10.299Z,6.50
2017-10-01T05:35:38.538Z,6.57
2017-10-01T05:38:06.345Z,7.20
2017-10-01T05:40:34.011Z,7.43
2017-10-01T05:43:01.485Z,6.53
2017-10-01T05:45:28.993Z,6.20
2017-10-01T05:47:56.442Z,6.00
2017-10-01T05:50:23.936Z,6.50
2017-10-01T05:52:51.535Z,6.00
2017-10-01T05:55:19.023Z,6.20
2017-10-01T05:57:46.492Z,5.80
2017-10-01T06:00:13.964Z,6.73
2017-10-01T06:02:41.446Z,7.30
2017-10-01T06:05:09.688Z,6.20
2017-10-01T06:07:37.175Z,5.87
2017-10-01T06:10:04.631Z,7.23
2017-10-01T06:12:32.212Z,6.83
2017-10-01T06:14:59.688Z,6.97
2017-10-01T06:17:27.171Z,8.77
2017-10-01T06:19:54.639Z,7.10
2017-10-01T06:22:22.122Z,7.10
2017-10-01T06:24:49.593Z,7.77
2017-10-01T06:27:17.068Z,7.70
2017-10-01T06:29:45.339Z,8.30
2017-10-01T06:32:12.809Z,8.57
2017-10-01T06:34:40.262Z,8.10
2017-10-01T06:37:07.762Z,9.00
2017-10-01T06:39:36.231Z,8.77
2017-10-01T06:42:03.850Z,8.77
2017-10-01T06:44:31.317Z,8.10
2017-10-01T06:46:59.552Z,8.07
2017-10-01T06:49:27.017Z,8.97
2017-10-01T06:51:54.483Z,7.63
2017-10-01T06:54:21.989Z,9.10
2017-10-01T06:56:49.555Z,9.43
2017-10-01T06:59:17.143Z,10.07
2017-10-01T07:01:44.619Z,9.70
2017-10-01T07:04:12.095Z,10.03
2017-10-01T07:06:42.380Z,10.50
2017-10-01T07:09:09.856Z,10.00
2017-10-01T07:11:37.337Z,10.00
2017-10-01T07:14:04.796Z,9.40
2017-10-01T07:16:32.520Z,11.27
2017-10-01T07:18:59.979Z,10.43
2017-10-01T07:21:27.468Z,9.07
2017-10-01T07:23:54.979Z,10.20
2017-10-01T07:26:22.471Z,11.20
2017-10-01T07:28:50.780Z,10.87
2017-10-01T07:31:19.131Z,10.70
2017-10-01T07:33:46.607Z,13.27
2017-10-01T07:36:14.210Z,10.73
2017-10-01T07:38:41.730Z,10.80
2017-10-01T07:41:09.976Z,10.60
2017-10-01T07:43:37.451Z,10.23
2017-10-01T07:46:04.939Z,11.17
2017-10-01T07:48:32.397Z,11.80
2017-10-01T07:50:59.893Z,11.43
2017-10-01T07:53:27.386Z,11.90
2017-10-01T07:55:54.897Z,10.70
2017-10-01T07:58:22.362Z,11.50
2017-10-01T08:00:49.849Z,11.97
2017-10-01T08:03:18.301Z,11.90
2017-10-01T08:05:46.563Z,11.27
2017-10-01T08:08:14.198Z,12.07
2017-10-01T08:10:41.645Z,12.83
2017-10-01T08:13:09.129Z,10.40
2017-10-01T08:15:36.607Z,12.33
2017-10-01T08:18:04.121Z,11.83
2017-10-01T08:20:31.735Z,12.70
2017-10-01T08:22:59.211Z,12.37
2017-10-01T08:25:26.711Z,12.87
2017-10-01T08:27:54.271Z,13.20
2017-10-01T08:30:21.761Z,14.17
2017-10-01T08:32:49.243Z,14.07
2017-10-01T08:35:16.739Z,15.03
2017-10-01T08:37:44.199Z,16.67
2017-10-01T08:40:11.890Z,16.80
2017-10-01T08:42:40.854Z,16.93
2017-10-01T08:45:08.397Z,17.63
2017-10-01T08:47:36.640Z,17.23
2017-10-01T08:50:04.906Z,16.40
2017-10-01T08:52:32.539Z,16.47
2017-10-01T08:55:01.690Z,16.93
2017-10-01T08:57:29.325Z,17.03
2017-10-01T08:59:56.856Z,16.73
2017-10-01T09:02:25.136Z,17.40
2017-10-01T09:04:53.444Z,18.73
2017-10-01T09:07:21.671Z,18.73
2017-10-01T09:09:50.010Z,19.27
2017-10-01T09:12:17.480Z,19.73
2017-10-01T09:14:44.975Z,19.90
2017-10-01T09:17:13.544Z,19.00
2017-10-01T09:19:41.162Z,18.20
2017-10-01T09:22:08.642Z,19.10
2017-10-01T09:24:36.130Z,20.30
2017-10-01T09:27:03.651Z,19.23
2017-10-01T09:29:32.105Z,19.40
2017-10-01T09:31:59.605Z,19.60
2017-10-01T09:34:27.095Z,19.10
2017-10-01T09:36:54.561Z,17.90
2017-10-01T09:39:22.069Z,18.07
2017-10-01T09:41:49.540Z,17.90
2017-10-01T09:44:17.029Z,19.50
2017-10-01T09:46:46.004Z,19.00
2017-10-01T09:49:13.613Z,17.50
2017-10-01T09:51:41.106Z,17.23
2017-10-01T09:54:08.614Z,16.30
2017-10-01T09:56:36.873Z,17.20
2017-10-01T09:59:04.343Z,17.60
2017-10-01T10:01:32.075Z,17.87
2017-10-01T10:03:59.548Z,19.30
2017-10-01T10:06:27.031Z,16.80
2017-10-01T10:08:54.522Z,16.40
2017-10-01T10:11:22.003Z,18.07
2017-10-01T10:13:49.514Z,16.77
2017-10-01T10:16:17.747Z,17.30
2017-10-01T10:18:45.241Z,16.13
2017-10-01T10:21:12.771Z,18.73
2017-10-01T10:23:40.277Z,16.87
2017-10-01T10:26:08.513Z,16.00
2017-10-01T10:28:36.042Z,17.20
2017-10-01T10:31:03.540Z,17.10
2017-10-01T10:33:31.814Z,16.60
2017-10-01T10:35:59.304Z,15.87
2017-10-01T10:38:26.781Z,18.00
2017-10-01T10:40:54.449Z,17.30
2017-10-01T10:43:21.941Z,16.80
2017-10-01T10:45:49.415Z,17.73
2017-10-01T10:48:16.934Z,15.83
2017-10-01T10:50:45.330Z,15.83
2017-10-01T10:53:13.670Z,16.53
2017-10-01T10:55:41.149Z,14.20
2017-10-01T10:58:08.640Z,14.07
2017-10-01T11:00:36.137Z,14.87
2017-10-01T11:03:04.555Z,13.10
2017-10-01T11:05:32.287Z,13.90
2017-10-01T11:07:59.776Z,16.40
2017-10-01T11:10:27.230Z,15.60
2017-10-01T11:12:54.715Z,13.10
2017-10-01T11:15:22.187Z,14.40
2017-10-01T11:17:49.691Z,15.23
2017-10-01T11:20:17.146Z,14.67
2017-10-01T11:22:44.645Z,14.80
2017-10-01T11:25:12.241Z,14.43
2017-10-01T11:27:39.841Z,14.40
2017-10-01T11:30:08.086Z,14.90
2017-10-01T11:32:35.651Z,13.73
2017-10-01T11:35:03.143Z,13.00
2017-10-01T11:37:30.648Z,14.13
2017-10-01T11:39:58.197Z,14.13
2017-10-01T11:42:26.463Z,13.53
2017-10-01T11:44:54.138Z,12.80
2017-10-01T11:47:21.618Z,14.60
2017-10-01T11:49:49.083Z,15.40
2017-10-01T11:52:16.579Z,14.30
2017-10-01T11:54:44.052Z,12.23
2017-10-01T11:57:12.011Z,12.90
2017-10-01T11:59:39.503Z,12.83
2017-10-01T12:02:06.965Z,14.37
2017-10-01T12:04:35.225Z,12.73
2017-10-01T12:07:02.795Z,13.20
2017-10-01T12:09:30.285Z,10.83
2017-10-01T12:11:57.755Z,12.30
2017-10-01T12:14:25.325Z,13.20
2017-10-01T12:16:52.858Z,12.00
2017-10-01T12:19:20.360Z,13.20
2017-10-01T12:21:48.612Z,11.60
2017-10-01T12:24:16.076Z,12.97
2017-10-01T12:26:43.681Z,13.50
2017-10-01T12:29:11.162Z,13.00
2017-10-01T12:31:38.653Z,10.30
2017-10-01T12:34:06.144Z,10.83
2017-10-01T12:36:33.896Z,11.10
2017-10-01T12:39:01.372Z,9.93
2017-10-01T12:41:28.895Z,11.63
2017-10-01T12:43:56.362Z,10.40
2017-10-01T12:46:23.861Z,10.60
2017-10-01T12:48:51.395Z,11.87
2017-10-01T12:51:18.874Z,12.37
2017-10-01T12:53:46.371Z,14.40
2017-10-01T12:56:13.984Z,13.10
2017-10-01T12:58:41.525Z,12.77
2017-10-01T13:01:08.994Z,15.10
2017-10-01T13:03:37.268Z,15.10
2017-10-01T13:06:04.730Z,14.00
2017-10-01T13:08:32.242Z,13.00
2017-10-01T13:10:59.723Z,13.73
2017-10-01T13:13:27.341Z,11.23
2017-10-01T13:15:55.644Z,11.07
2017-10-01T13:18:23.891Z,10.77
2017-10-01T13:20:51.453Z,9.57
2017-10-01T13:23:18.933Z,10.50
2017-10-01T13:25:46.442Z,8.67
2017-10-01T13:28:14.030Z,9.87
2017-10-01T13:30:41.645Z,11.13
2017-10-01T13:33:09.988Z,11.57
2017-10-01T13:35:38.279Z,9.90
2017-10-01T13:38:05.835Z,9.83
2017-10-01T13:40:33.343Z,10.00
2017-10-01T13:43:01.718Z,9.50
2017-10-01T13:45:29.954Z,8.87
2017-10-01T13:47:57.459Z,9.10
2017-10-01T13:50:24.955Z,10.33
2017-10-01T13:52:52.480Z,10.00
2017-10-01T13:55:20.741Z,10.00
2017-10-01T13:57:48.989Z,11.10
2017-10-01T14:00:17.389Z,10.27
2017-10-01T14:02:44.859Z,11.10
2017-10-01T14:05:18.162Z,10.73
2017-10-01T14:07:45.639Z,12.07
2017-10-01T14:10:13.172Z,10.30
2017-10-01T14:12:41.415Z,9.73
2017-10-01T14:15:09.030Z,13.63
2017-10-01T14:17:36.616Z,10.00
2017-10-01T14:20:04.070Z,9.80
2017-10-01T14:22:32.380Z,9.87
2017-10-01T14:24:59.864Z,9.00
2017-10-01T14:27:27.355Z,10.50
2017-10-01T14:29:54.837Z,10.63
2017-10-01T14:32:22.305Z,10.97
2017-10-01T14:34:49.909Z,11.60
2017-10-01T14:37:17.398Z,10.60
2017-10-01T14:39:44.875Z,9.47
2017-10-01T14:42:12.767Z,11.00
2017-10-01T14:44:40.415Z,11.07
2017-10-01T14:47:07.924Z,10.53
2017-10-01T14:49:35.422Z,11.20
2017-10-01T14:52:04.529Z,10.20
2017-10-01T14:54:32.038Z,10.13
2017-10-01T14:57:00.267Z,8.97
2017-10-01T14:59:27.776Z,12.20
2017-10-01T15:01:55.270Z,11.07
2017-10-01T15:04:22.783Z,11.00
2017-10-01T15:06:50.251Z,11.90
2017-10-01T15:09:17.845Z,10.57
2017-10-01T15:11:45.333Z,9.10
2017-10-01T15:14:12.826Z,9.80
2017-10-01T15:16:40.335Z,10.93
2017-10-01T15:19:07.824Z,13.67
2017-10-01T15:21:36.160Z,12.10
2017-10-01T15:24:03.642Z,13.00
2017-10-01T15:26:31.128Z,11.77
2017-10-01T15:28:58.632Z,12.50
2017-10-01T15:31:26.884Z,12.87
2017-10-01T15:33:54.451Z,13.40
2017-10-01T15:36:21.947Z,12.47
2017-10-01T15:38:49.545Z,11.97
2017-10-01T15:41:17.062Z,12.50
2017-10-01T15:43:44.541Z,13.33
2017-10-01T15:46:12.179Z,13.17
2017-10-01T15:48:39.664Z,13.07
2017-10-01T15:51:07.204Z,11.77
2017-10-01T15:53:35.540Z,13.37
2017-10-01T15:56:03.030Z,12.43
2017-10-01T15:58:30.519Z,12.83
2017-10-01T16:00:58.009Z,11.90
2017-10-01T16:03:25.519Z,11.90
2017-10-01T16:05:53.024Z,13.47
2017-10-01T16:08:21.405Z,13.07
2017-10-01T16:10:48.903Z,11.60
2017-10-01T16:13:16.391Z,12.10
2017-10-01T16:15:43.960Z,12.40
2017-10-01T16:18:11.454Z,11.10
2017-10-01T16:20:39.713Z,11.77
2017-10-01T16:23:07.201Z,12.63
2017-10-01T16:25:34.814Z,12.10
2017-10-01T16:28:02.325Z,11.50
2017-10-01T16:30:29.811Z,12.57
2017-10-01T16:32:58.044Z,12.73
2017-10-01T16:35:25.560Z,13.73
2017-10-01T16:37:53.066Z,14.03
2017-10-01T16:40:21.332Z,12.60
2017-10-01T16:42:48.809Z,14.50
2017-10-01T16:45:16.369Z,13.00
2017-10-01T16:47:43.867Z,12.97
2017-10-01T16:50:11.353Z,13.50
2017-10-01T16:52:38.955Z,13.07
2017-10-01T16:55:06.470Z,13.30
2017-10-01T16:57:34.959Z,14.77
2017-10-01T17:00:02.570Z,13.30
2017-10-01T17:02:30.827Z,14.10
2017-10-01T17:04:58.552Z,14.63
2017-10-01T17:07:26.794Z,15.00
2017-10-01T17:09:54.265Z,17.53
2017-10-01T17:12:21.772Z,16.17
2017-10-01T17:14:49.246Z,14.70
2017-10-01T17:17:16.744Z,14.03
2017-10-01T17:19:44.233Z,15.20
2017-10-01T17:22:11.808Z,15.13
2017-10-01T17:24:39.308Z,15.30
2017-10-01T17:27:06.791Z,15.47
2017-10-01T17:29:34.407Z,14.93
2017-10-01T17:32:02.644Z,14.60
2017-10-01T17:34:30.123Z,14.13
2017-10-01T17:36:57.585Z,14.73
2017-10-01T17:39:25.084Z,15.37
2017-10-01T17:41:52.613Z,13.73
2017-10-01T17:44:20.091Z,14.90
2017-10-01T17:46:47.593Z,15.10
2017-10-01T17:49:15.888Z,14.70
2017-10-01T17:51:43.372Z,14.80
2017-10-01T17:54:10.847Z,15.73
2017-10-01T17:56:39.107Z,13.83
2017-10-01T17:59:06.602Z,16.60
2017-10-01T18:01:34.334Z,15.20
2017-10-01T18:04:02.613Z,15.10
2017-10-01T18:06:30.105Z,16.43
2017-10-01T18:08:58.375Z,16.43
2017-10-01T18:11:25.845Z,17.10
2017-10-01T18:13:54.117Z,14.57
2017-10-01T18:16:21.732Z,16.83
2017-10-01T18:18:49.257Z,16.90
2017-10-01T18:21:17.507Z,17.37
2017-10-01T18:23:44.981Z,16.47
2017-10-01T18:26:12.742Z,17.07
2017-10-01T18:28:40.445Z,16.87
2017-10-01T18:31:07.961Z,15.23
2017-10-01T18:33:35.607Z,16.70
2017-10-01T18:36:03.081Z,15.90
2017-10-01T18:38:31.332Z,16.77
2017-10-01T18:40:58.816Z,16.57
2017-10-01T18:43:27.190Z,15.87
2017-10-01T18:45:54.822Z,15.87
2017-10-01T18:48:23.074Z,16.43
2017-10-01T18:50:50.557Z,16.17
2017-10-01T18:53:18.785Z,17.50
2017-10-01T18:55:46.809Z,16.97
2017-10-01T18:58:15.209Z,15.33
2017-10-01T19:00:42.733Z,16.30
2017-10-01T19:03:10.339Z,17.93
2017-10-01T19:05:37.990Z,15.47
2017-10-01T19:08:05.567Z,15.13
2017-10-01T19:10:33.809Z,15.47
2017-10-01T19:13:01.303Z,14.83
2017-10-01T19:15:28.783Z,13.07
2017-10-01T19:17:56.270Z,16.10
2017-10-01T19:20:23.734Z,15.27
2017-10-01T19:22:51.222Z,15.60
2017-10-01T19:25:19.000Z,15.13
2017-10-01T19:27:46.512Z,16.43
2017-10-01T19:30:15.054Z,15.30
2017-10-01T19:32:42.597Z,15.00
2017-10-01T19:35:10.099Z,17.53
2017-10-01T19:37:37.592Z,17.07
2017-10-01T19:40:05.086Z,16.40
2017-10-01T19:42:33.528Z,18.07
2017-10-01T19:45:00.998Z,18.77
2017-10-01T19:47:29.338Z,20.70
2017-10-01T19:49:56.836Z,21.20
2017-10-01T19:52:24.326Z,20.60
2017-10-01T19:54:51.847Z,20.07
2017-10-01T19:57:19.376Z,19.40
2017-10-01T19:59:46.864Z,18.97
2017-10-01T20:02:14.431Z,17.43
2017-10-01T20:04:41.904Z,21.07
2017-10-01T20:07:09.371Z,21.30
2017-10-01T20:09:37.654Z,20.70
2017-10-01T20:12:05.912Z,22.00
2017-10-01T20:14:34.359Z,21.97
2017-10-01T20:17:01.903Z,21.17
2017-10-01T20:19:29.481Z,23.03
2017-10-01T20:21:56.942Z,21.07
2017-10-01T20:24:25.208Z,22.43
2017-10-01T20:26:53.619Z,21.40
2017-10-01T20:29:21.106Z,22.63
2017-10-01T20:31:48.617Z,22.07
2017-10-01T20:34:16.112Z,22.70
2017-10-01T20:36:43.590Z,22.43
2017-10-01T20:39:11.079Z,23.33
2017-10-01T20:41:38.559Z,22.17
2017-10-01T20:44:06.073Z,22.50
2017-10-01T20:46:33.548Z,23.83
2017-10-01T20:49:01.014Z,22.40
2017-10-01T20:51:28.509Z,23.07
2017-10-01T20:53:56.010Z,21.93
2017-10-01T20:56:23.518Z,21.90
2017-10-01T20:58:51.762Z,22.47
2017-10-01T21:01:19.995Z,22.70
2017-10-01T21:03:47.498Z,23.23
2017-10-01T21:06:15.727Z,23.77
2017-10-01T21:08:43.209Z,21.40
2017-10-01T21:11:11.477Z,21.80
2017-10-01T21:13:39.739Z,19.67
2017-10-01T21:16:07.206Z,18.63
2017-10-01T21:18:35.087Z,20.73
2017-10-01T21:21:02.586Z,20.50
2017-10-01T21:23:30.063Z,20.10
2017-10-01T21:25:57.568Z,20.50
2017-10-01T21:28:25.698Z,20.37
2017-10-01T21:30:53.203Z,19.07
2017-10-01T21:33:20.728Z,19.73
2017-10-01T21:35:49.087Z,20.40
2017-10-01T21:38:16.573Z,20.70
2017-10-01T21:40:44.050Z,20.87
2017-10-01T21:43:11.539Z,19.80
2017-10-01T21:45:39.006Z,19.70
2017-10-01T21:48:06.493Z,20.40
2017-10-01T21:50:34.082Z,20.97
2017-10-01T21:53:02.622Z,21.10
2017-10-01T21:55:30.074Z,19.90
2017-10-01T21:57:57.556Z,20.53
2017-10-01T22:00:25.041Z,18.97
2017-10-01T22:02:52.609Z,19.70
2017-10-01T22:05:20.101Z,21.23
2017-10-01T22:07:47.607Z,18.50
2017-10-01T22:10:15.150Z,18.73
2017-10-01T22:12:42.607Z,18.60
2017-10-01T22:15:10.876Z,18.37
2017-10-01T22:17:38.368Z,17.80
2017-10-01T22:20:05.831Z,19.50
2017-10-01T22:22:33.327Z,17.90
2017-10-01T22:25:00.782Z,18.60
2017-10-01T22:27:28.276Z,19.77
2017-10-01T22:29:56.516Z,19.20
2017-10-01T22:32:24.782Z,20.47
2017-10-01T22:34:52.438Z,19.87
2017-10-01T22:37:19.901Z,21.10
2017-10-01T22:39:48.157Z,21.20
2017-10-01T22:42:15.617Z,21.90
2017-10-01T22:44:43.099Z,22.30
2017-10-01T22:47:10.564Z,23.40
2017-10-01T22:49:38.056Z,22.83
2017-10-01T22:52:05.524Z,22.67
2017-10-01T22:54:33.082Z,23.27
2017-10-01T22:57:00.547Z,22.90
2017-10-01T22:59:28.121Z,22.00
2017-10-01T23:01:55.596Z,22.93
2017-10-01T23:04:23.838Z,23.80
2017-10-01T23:06:52.097Z,22.87
2017-10-01T23:09:19.554Z,22.53
2017-10-01T23:11:47.035Z,22.77
2017-10-01T23:14:14.495Z,23.10
2017-10-01T23:16:42.852Z,21.33
2017-10-01T23:19:10.325Z,22.57
2017-10-01T23:21:37.801Z,22.10
2017-10-01T23:24:05.306Z,21.70
2017-10-01T23:26:32.788Z,20.27
2017-10-01T23:29:00.270Z,19.80
2017-10-01T23:31:27.730Z,19.90
2017-10-01T23:33:55.252Z,21.10
2017-10-01T23:36:23.518Z,20.20
2017-10-01T23:38:50.979Z,18.77
2017-10-01T23:41:18.578Z,18.90
2017-10-01T23:43:46.210Z,19.67
2017-10-01T23:46:13.819Z,17.37
2017-10-01T23:48:42.058Z,18.37
2017-10-01T23:51:09.540Z,19.37
2017-10-01T23:53:37.050Z,18.37
2017-10-01T23:56:04.532Z,18.97
2017-10-01T23:58:32.900Z,20.03
